createdAt,value
2017-12-03T00:01:45.496Z,100097.38
2017-12-03T00:04:13.179Z,100100.82
2017-12-03T00:06:40.778Z,100092.31
2017-12-03T00:09:08.382Z,100088.61
2017-12-03T00:11:36.120Z,100088.34
2017-12-03T00:14:03.727Z,100069.23
2017-12-03T00:16:31.330Z,100069.23
2017-12-03T00:18:59.039Z,100072.56
2017-12-03T00:21:26.643Z,100072.38
2017-12-03T00:23:54.251Z,100065.83
2017-12-03T00:26:21.962Z,100066.28
2017-12-03T00:28:49.555Z,100075.15
2017-12-03T00:31:17.153Z,100078.33
2017-12-03T00:33:44.872Z,100070.14
2017-12-03T00:36:12.474Z,100085.14
2017-12-03T00:38:40.063Z,100083.16
2017-12-03T00:41:07.771Z,100081.96
2017-12-03T00:43:35.367Z,100085.02
2017-12-03T00:46:02.958Z,100080.38
2017-12-03T00:48:30.671Z,100087.55
2017-12-03T00:50:58.278Z,100074.93
2017-12-03T00:53:25.881Z,100074.20
2017-12-03T00:55:53.554Z,100090.05
2017-12-03T00:58:21.151Z,100085.03
2017-12-03T01:00:48.817Z,100071.53
2017-12-03T01:03:16.462Z,100072.49
2017-12-03T01:05:44.051Z,100079.23
2017-12-03T01:08:11.732Z,100075.13
2017-12-03T01:10:39.411Z,100062.00
2017-12-03T01:13:07.059Z,100061.63
2017-12-03T01:15:34.836Z,100049.91
2017-12-03T01:18:02.527Z,100043.52
2017-12-03T01:20:30.171Z,100032.57
2017-12-03T01:22:57.783Z,100041.17
2017-12-03T01:25:25.547Z,100040.60
2017-12-03T01:27:53.198Z,100037.86
2017-12-03T01:30:20.800Z,100049.75
2017-12-03T01:32:48.434Z,100050.86
2017-12-03T01:35:16.022Z,100029.52
2017-12-03T01:37:43.675Z,100020.64
2017-12-03T01:40:11.307Z,100033.61
2017-12-03T01:42:38.964Z,100038.13
2017-12-03T01:45:06.555Z,100036.09
2017-12-03T01:47:34.271Z,100029.78
2017-12-03T01:50:01.863Z,100016.92
2017-12-03T01:52:29.539Z,100015.31
2017-12-03T01:54:57.248Z,100011.84
2017-12-03T01:57:24.843Z,100026.95
2017-12-03T01:59:52.448Z,100038.65
2017-12-03T02:02:20.099Z,100033.86
2017-12-03T02:04:47.764Z,100025.64
2017-12-03T02:07:15.387Z,100033.28
2017-12-03T02:09:43.046Z,100022.67
2017-12-03T02:12:10.647Z,100018.67
2017-12-03T02:14:38.247Z,100018.62
2017-12-03T02:17:05.898Z,100006.77
2017-12-03T02:19:33.507Z,100021.06
2017-12-03T02:22:01.127Z,100018.90
2017-12-03T02:24:28.762Z,100016.28
2017-12-03T02:26:56.359Z,100011.36
2017-12-03T02:29:23.955Z,100007.30
2017-12-03T02:31:51.652Z,100001.96
2017-12-03T02:34:19.257Z,100003.83
2017-12-03T02:36:46.855Z,100004.40
2017-12-03T02:39:14.498Z,99984.44
2017-12-03T02:41:42.151Z,99971.91
2017-12-03T02:44:10.759Z,99969.64
2017-12-03T02:46:38.407Z,99972.25
2017-12-03T02:49:05.999Z,99965.77
2017-12-03T02:51:33.611Z,99949.16
2017-12-03T02:54:01.280Z,99938.30
2017-12-03T02:56:28.867Z,99947.73
2017-12-03T02:58:56.529Z,99951.27
2017-12-03T03:01:24.171Z,99960.26
2017-12-03T03:03:51.767Z,99971.16
2017-12-03T03:06:19.354Z,99966.51
2017-12-03T03:08:47.007Z,99962.61
2017-12-03T03:11:14.663Z,99961.44
2017-12-03T03:13:42.255Z,99949.17
2017-12-03T03:16:09.912Z,99942.56
2017-12-03T03:18:37.514Z,99935.11
2017-12-03T03:21:05.164Z,99932.20
2017-12-03T03:23:32.803Z,99929.00
2017-12-03T03:26:00.398Z,99925.57
2017-12-03T03:28:27.991Z,99922.81
2017-12-03T03:30:55.696Z,99902.29
2017-12-03T03:33:23.298Z,99888.15
2017-12-03T03:35:50.908Z,99897.86
2017-12-03T03:38:18.567Z,99897.70
2017-12-03T03:40:46.227Z,99905.39
2017-12-03T03:43:13.896Z,99904.92
2017-12-03T03:45:41.567Z,99920.19
2017-12-03T03:48:09.244Z,99922.95
2017-12-03T03:50:36.852Z,99923.52
2017-12-03T03:53:04.511Z,99924.77
2017-12-03T03:55:32.131Z,99918.78
2017-12-03T03:57:59.723Z,99907.09
2017-12-03T04:00:27.395Z,99912.95
2017-12-03T04:02:55.011Z,99918.50
2017-12-03T04:05:22.632Z,99919.94
2017-12-03T04:07:50.282Z,99918.75
2017-12-03T04:10:17.883Z,99901.02
2017-12-03T04:12:45.572Z,99898.08
2017-12-03T04:15:13.254Z,99895.74
2017-12-03T04:17:40.868Z,99886.69
2017-12-03T04:20:08.484Z,99883.94
2017-12-03T04:22:36.232Z,99889.33
2017-12-03T04:25:03.895Z,99910.39
2017-12-03T04:27:31.619Z,99920.00
2017-12-03T04:29:59.336Z,99915.38
2017-12-03T04:32:27.057Z,99902.92
2017-12-03T04:34:54.776Z,99890.05
2017-12-03T04:37:22.488Z,99876.39
2017-12-03T04:39:50.229Z,99865.46
2017-12-03T04:42:17.907Z,99850.52
2017-12-03T04:44:45.676Z,99851.29
2017-12-03T04:47:13.399Z,99855.95
2017-12-03T04:49:41.007Z,99844.14
2017-12-03T04:52:08.671Z,99850.13
2017-12-03T04:54:36.283Z,99858.94
2017-12-03T04:57:03.909Z,99853.63
2017-12-03T04:59:31.567Z,99857.14
2017-12-03T05:01:59.167Z,99857.84
2017-12-03T05:04:26.861Z,99854.94
2017-12-03T05:06:54.531Z,99858.91
2017-12-03T05:09:22.199Z,99853.70
2017-12-03T05:11:49.807Z,99837.58
2017-12-03T05:14:17.522Z,99830.02
2017-12-03T05:16:45.134Z,99829.22
2017-12-03T05:19:12.743Z,99837.78
2017-12-03T05:21:40.403Z,99845.53
2017-12-03T05:24:08.027Z,99857.91
2017-12-03T05:26:35.691Z,99859.26
2017-12-03T05:29:03.423Z,99864.11
2017-12-03T05:31:31.035Z,99856.92
2017-12-03T05:33:58.635Z,99862.19
2017-12-03T05:36:26.308Z,99863.26
2017-12-03T05:38:53.910Z,99871.55
2017-12-03T05:41:21.582Z,99880.91
2017-12-03T05:43:49.251Z,99875.27
2017-12-03T05:46:16.862Z,99868.88
2017-12-03T05:48:44.473Z,99869.58
2017-12-03T05:51:12.122Z,99869.00
2017-12-03T05:53:39.731Z,99883.02
2017-12-03T05:56:07.394Z,99867.69
2017-12-03T05:58:35.043Z,99868.83
2017-12-03T06:01:02.659Z,99864.09
2017-12-03T06:03:30.324Z,99872.33
2017-12-03T06:05:58.040Z,99874.00
2017-12-03T06:08:25.755Z,99878.02
2017-12-03T06:10:53.427Z,99883.41
2017-12-03T06:13:21.147Z,99878.44
2017-12-03T06:15:48.815Z,99868.28
2017-12-03T06:18:16.426Z,99865.39
2017-12-03T06:20:44.086Z,99854.52
2017-12-03T06:23:11.691Z,99845.23
2017-12-03T06:25:39.357Z,99834.73
2017-12-03T06:28:07.055Z,99846.17
2017-12-03T06:30:34.666Z,99832.95
2017-12-03T06:33:02.323Z,99835.39
2017-12-03T06:35:29.975Z,99846.41
2017-12-03T06:37:57.606Z,99824.89
2017-12-03T06:40:25.199Z,99815.63
2017-12-03T06:42:52.923Z,99812.70
2017-12-03T06:45:20.591Z,99804.73
2017-12-03T06:47:48.202Z,99795.67
2017-12-03T06:50:15.863Z,99806.30
2017-12-03T06:52:43.462Z,99797.66
2017-12-03T06:55:11.071Z,99801.17
2017-12-03T06:57:38.722Z,99809.47
2017-12-03T07:00:06.383Z,99804.38
2017-12-03T07:02:34.035Z,99801.84
2017-12-03T07:05:01.694Z,99796.81
2017-12-03T07:07:29.303Z,99796.59
2017-12-03T07:09:56.963Z,99788.03
2017-12-03T07:12:24.771Z,99792.03
2017-12-03T07:14:52.439Z,99790.01
2017-12-03T07:17:20.047Z,99793.67
2017-12-03T07:19:47.717Z,99788.45
2017-12-03T07:22:15.358Z,99788.00
2017-12-03T07:24:43.039Z,99778.20
2017-12-03T07:27:10.739Z,99792.89
2017-12-03T07:29:38.402Z,99793.17
2017-12-03T07:32:06.015Z,99790.66
2017-12-03T07:34:33.813Z,99787.52
2017-12-03T07:37:01.480Z,99793.36
2017-12-03T07:39:29.150Z,99778.91
2017-12-03T07:41:56.866Z,99790.41
2017-12-03T07:44:24.591Z,99776.47
2017-12-03T07:46:52.251Z,99778.36
2017-12-03T07:49:19.962Z,99778.13
2017-12-03T07:51:47.631Z,99773.43
2017-12-03T07:54:15.310Z,99762.41
2017-12-03T07:56:42.987Z,99770.70
2017-12-03T07:59:10.607Z,99764.34
2017-12-03T08:01:38.225Z,99763.17
2017-12-03T08:04:05.883Z,99765.24
2017-12-03T08:06:33.495Z,99770.56
2017-12-03T08:09:01.163Z,99785.33
2017-12-03T08:11:28.846Z,99783.44
2017-12-03T08:13:56.463Z,99805.02
2017-12-03T08:16:24.179Z,99798.06
2017-12-03T08:18:51.959Z,99802.25
2017-12-03T08:21:19.622Z,99792.83
2017-12-03T08:23:47.288Z,99794.81
2017-12-03T08:26:14.999Z,99792.65
2017-12-03T08:28:42.744Z,99789.73
2017-12-03T08:31:10.363Z,99783.20
2017-12-03T08:33:38.031Z,99791.41
2017-12-03T08:36:05.683Z,99779.52
2017-12-03T08:38:33.343Z,99773.74
2017-12-03T08:41:01.087Z,99761.64
2017-12-03T08:43:28.756Z,99768.36
2017-12-03T08:45:56.452Z,99774.06
2017-12-03T08:48:24.192Z,99774.86
2017-12-03T08:50:51.810Z,99769.37
2017-12-03T08:53:19.426Z,99775.61
2017-12-03T08:55:47.150Z,99778.77
2017-12-03T08:58:14.840Z,99783.97
2017-12-03T09:00:42.567Z,99800.33
2017-12-03T09:03:10.320Z,99807.34
2017-12-03T09:05:38.028Z,99799.44
2017-12-03T09:08:05.713Z,99803.41
2017-12-03T09:10:33.379Z,99809.78
2017-12-03T09:13:01.001Z,99809.58
2017-12-03T09:15:28.669Z,99826.92
2017-12-03T09:17:56.391Z,99841.64
2017-12-03T09:20:23.998Z,99838.06
2017-12-03T09:22:51.680Z,99845.03
2017-12-03T09:25:19.408Z,99837.58
2017-12-03T09:27:47.088Z,99857.95
2017-12-03T09:30:14.723Z,99878.34
2017-12-03T09:32:46.758Z,99886.48
2017-12-03T09:35:15.412Z,99895.08
2017-12-03T09:37:44.312Z,99904.56
2017-12-03T09:40:12.079Z,99912.04
2017-12-03T09:42:39.763Z,99899.71
2017-12-03T09:45:07.381Z,99927.97
2017-12-03T09:47:35.243Z,99928.17
2017-12-03T09:50:04.462Z,99929.33
2017-12-03T09:52:32.824Z,99936.06
2017-12-03T09:55:00.480Z,99948.87
2017-12-03T09:57:29.595Z,99958.05
2017-12-03T09:59:57.218Z,99969.55
2017-12-03T10:02:24.900Z,99967.28
2017-12-03T10:04:52.571Z,99959.45
2017-12-03T10:07:20.190Z,99971.05
2017-12-03T10:09:47.884Z,99984.48
2017-12-03T10:12:15.491Z,99985.41
2017-12-03T10:14:43.218Z,99996.81
2017-12-03T10:17:11.516Z,100014.13
2017-12-03T10:19:39.195Z,100007.77
2017-12-03T10:22:06.924Z,100006.16
2017-12-03T10:24:36.355Z,100015.75
2017-12-03T10:27:04.053Z,100001.30
2017-12-03T10:29:31.696Z,100039.73
2017-12-03T10:32:00.344Z,100024.10
2017-12-03T10:34:29.150Z,100038.42
2017-12-03T10:36:58.187Z,100051.02
2017-12-03T10:39:26.540Z,100049.76
2017-12-03T10:41:54.175Z,100058.30
2017-12-03T10:44:22.947Z,100083.18
2017-12-03T10:46:50.795Z,100095.10
2017-12-03T10:49:18.465Z,100078.55
2017-12-03T10:51:46.063Z,100091.01
2017-12-03T10:54:13.793Z,100100.30
2017-12-03T10:56:41.463Z,100084.71
2017-12-03T10:59:09.139Z,100084.98
2017-12-03T11:01:36.891Z,100109.91
2017-12-03T11:04:04.502Z,100113.91
2017-12-03T11:06:32.136Z,100110.61
2017-12-03T11:08:59.828Z,100103.62
2017-12-03T11:11:27.451Z,100100.17
2017-12-03T11:13:55.063Z,100096.52
